Time;durP1;ratioP1;P1;durP2;ratioP2;P2;SDS_P1;SDS_P2;PMS_P1;PMS_P2;Temp;Humidity;BMP_temperature;BMP_pressure;BME280_temperature;BME280_humidity;BME280_pressure;Samples;Min_cycle;Max_cycle;Signal;HPM_P1;HPM_P2
2022/03/17 00:01:24;;;;;;;28.35;23.63;;;;;;;11.25;57.31;101174.09;4138432;28;20046;-66
2022/03/17 00:03:27;;;;;;;27.90;22.63;;;;;;;11.16;57.49;101179.13;4138880;28;20073;-67
2022/03/17 00:05:30;;;;;;;26.00;22.65;;;;;;;11.18;56.92;101170.50;4137843;28;20049;-66
2022/03/17 00:07:33;;;;;;;28.33;25.33;;;;;;;11.20;56.75;101167.03;4146698;28;20126;-66
2022/03/17 00:09:36;;;;;;;26.17;23.38;;;;;;;11.16;57.30;101173.91;4137805;28;20038;-66
2022/03/17 00:11:38;;;;;;;26.10;23.27;;;;;;;11.24;56.89;101179.28;4139227;28;20467;-66
2022/03/17 00:13:41;;;;;;;27.48;24.40;;;;;;;11.20;57.05;101169.63;4138611;28;20038;-67
2022/03/17 00:15:44;;;;;;;27.20;24.17;;;;;;;11.19;57.00;101176.59;4161016;28;20050;-67
2022/03/17 00:17:48;;;;;;;27.05;22.90;;;;;;;11.19;57.63;101179.19;4146530;28;20048;-66
2022/03/17 00:19:51;;;;;;;30.13;25.40;;;;;;;11.33;56.43;101184.69;4140211;28;20061;-66
2022/03/17 00:21:54;;;;;;;28.02;24.75;;;;;;;11.28;56.52;101176.78;4136316;28;20544;-66
2022/03/17 00:23:56;;;;;;;29.70;26.27;;;;;;;11.22;56.80;101186.19;4136694;28;20041;-66
2022/03/17 00:25:59;;;;;;;29.02;25.90;;;;;;;11.22;57.18;101176.66;4140407;28;20483;-66
2022/03/17 00:28:02;;;;;;;31.73;25.98;;;;;;;11.22;57.21;101179.25;4146045;28;20042;-66
2022/03/17 00:30:06;;;;;;;29.90;24.27;;;;;;;11.23;57.24;101188.81;4143210;28;20046;-66
2022/03/17 00:32:09;;;;;;;37.47;29.17;;;;;;;11.17;56.84;101184.34;4139935;28;20042;-66
2022/03/17 00:34:13;;;;;;;50.58;36.95;;;;;;;11.21;56.65;101181.81;4133788;28;20141;-66
2022/03/17 00:36:16;;;;;;;35.40;29.25;;;;;;;11.16;56.99;101184.31;4143597;28;20038;-66
2022/03/17 00:38:19;;;;;;;30.90;25.50;;;;;;;11.15;57.18;101186.03;4146236;28;20045;-66
2022/03/17 00:40:23;;;;;;;30.05;26.67;;;;;;;11.13;57.11;101192.94;4141232;28;20064;-66
2022/03/17 00:42:27;;;;;;;28.50;23.93;;;;;;;11.11;57.13;101186.81;4143830;28;20073;-66
2022/03/17 00:44:30;;;;;;;27.40;24.52;;;;;;;11.09;57.43;101185.88;4146422;28;20293;-67
2022/03/17 00:46:33;;;;;;;28.38;24.40;;;;;;;11.07;57.73;101192.78;4144798;28;20046;-66
2022/03/17 00:48:35;;;;;;;28.17;24.55;;;;;;;11.12;57.97;101188.56;4140470;28;20046;-66
2022/03/17 00:50:39;;;;;;;26.65;23.67;;;;;;;11.12;57.16;101177.28;4139675;28;20049;-66
2022/03/17 00:52:42;;;;;;;27.83;24.92;;;;;;;11.08;57.80;101189.34;4133227;28;20038;-66
2022/03/17 00:54:45;;;;;;;28.33;24.42;;;;;;;11.10;57.28;101184.19;4134752;28;20389;-66
2022/03/17 00:56:47;;;;;;;29.05;25.02;;;;;;;11.16;56.84;101193.00;4138138;28;20053;-67
2022/03/17 00:58:50;;;;;;;28.25;25.17;;;;;;;11.09;57.90;101190.22;4145711;28;20038;-67
2022/03/17 01:00:53;;;;;;;25.98;22.35;;;;;;;11.04;57.71;101186.63;4135680;28;20149;-67
2022/03/17 01:02:57;;;;;;;26.85;23.95;;;;;;;11.06;56.99;101180.63;4138053;28;20081;-67
2022/03/17 01:05:00;;;;;;;26.00;23.20;;;;;;;11.04;57.21;101176.22;4148067;28;20590;-67
2022/03/17 01:07:05;;;;;;;28.63;25.67;;;;;;;11.04;57.90;101184.00;4149277;28;20385;-67
2022/03/17 01:09:07;;;;;;;27.95;24.40;;;;;;;11.09;56.72;101188.50;4149687;28;20066;-67
2022/03/17 01:11:10;;;;;;;26.58;23.40;;;;;;;10.99;57.29;101179.59;4141147;28;20038;-67
2022/03/17 01:13:13;;;;;;;32.65;26.52;;;;;;;11.05;56.86;101176.25;4144854;28;20054;-67
2022/03/17 01:15:17;;;;;;;28.92;24.17;;;;;;;11.03;56.71;101185.75;4148651;28;20046;-67
2022/03/17 01:17:20;;;;;;;27.13;24.15;;;;;;;11.05;57.11;101181.44;4148954;28;20120;-67
2022/03/17 01:19:23;;;;;;;25.48;21.63;;;;;;;11.08;57.16;101186.75;4147773;28;20045;-67
2022/03/17 01:21:26;;;;;;;27.23;24.23;;;;;;;11.13;56.75;101176.44;4141874;28;20515;-67
2022/03/17 01:23:30;;;;;;;26.77;23.23;;;;;;;11.17;56.12;101173.06;4142629;28;20058;-67
2022/03/17 01:25:33;;;;;;;27.08;23.48;;;;;;;11.16;55.88;101172.19;4142462;28;20054;-67
2022/03/17 01:27:36;;;;;;;26.88;23.45;;;;;;;11.20;56.44;101172.25;4141607;28;20427;-67
2022/03/17 01:29:43;;;;;;;29.02;25.92;;;;;;;11.27;56.01;101176.75;4140896;28;20042;-67
2022/03/17 01:31:46;;;;;;;29.60;26.50;;;;;;;11.23;55.84;101174.91;4138114;28;20475;-67
2022/03/17 01:33:49;;;;;;;29.20;26.08;;;;;;;11.23;56.22;101178.41;4141141;28;20496;-67
2022/03/17 01:35:52;;;;;;;29.08;23.58;;;;;;;11.26;56.11;101178.47;4142593;28;20450;-67
2022/03/17 01:37:54;;;;;;;28.08;24.23;;;;;;;11.18;56.46;101180.91;4141493;28;20096;-67
2022/03/17 01:39:58;;;;;;;26.15;23.33;;;;;;;11.20;56.18;101173.16;4138778;28;20064;-67
2022/03/17 01:42:05;;;;;;;28.17;25.10;;;;;;;11.21;56.05;101174.00;4139682;28;20034;-67
2022/03/17 01:44:08;;;;;;;28.17;24.58;;;;;;;11.22;56.11;101175.78;4141529;28;20104;-67
2022/03/17 01:46:14;;;;;;;27.67;24.67;;;;;;;11.29;55.92;101175.94;4148042;28;20061;-67
2022/03/17 01:48:16;;;;;;;27.30;24.23;;;;;;;11.28;55.95;101170.72;4148323;28;20411;-67
2022/03/17 01:50:20;;;;;;;27.65;23.95;;;;;;;11.16;56.53;101177.38;4140970;28;20038;-67
2022/03/17 01:52:23;;;;;;;29.60;25.80;;;;;;;11.29;55.56;101175.06;4140713;28;20406;-67
2022/03/17 01:54:26;;;;;;;27.75;24.85;;;;;;;11.21;55.48;101172.28;4140785;28;20100;-67
2022/03/17 01:56:42;;;;;;;27.48;24.50;;;;;;;11.20;56.04;101180.94;4134633;28;20121;-67
2022/03/17 01:58:45;;;;;;;27.80;24.80;;;;;;;11.25;55.46;101171.50;4133174;28;20042;-67
2022/03/17 02:00:48;;;;;;;29.88;26.60;;;;;;;11.18;56.51;101174.81;4141071;28;20096;-67
2022/03/17 02:02:52;;;;;;;30.88;27.42;;;;;;;11.15;56.03;101173.00;4146190;28;20080;-67
2022/03/17 02:04:55;;;;;;;29.05;24.17;;;;;;;11.11;56.28;101165.09;4142156;28;20052;-66
2022/03/17 02:06:58;;;;;;;29.17;25.05;;;;;;;11.14;56.12;101179.09;4143173;28;20107;-67
2022/03/17 02:09:01;;;;;;;32.13;26.25;;;;;;;11.15;56.20;101180.81;4135376;28;20100;-67
2022/03/17 02:13:25;;;;;;;28.38;24.65;;;;;;;11.09;56.33;101188.50;4140648;28;20429;-66
2022/03/17 02:15:28;;;;;;;29.58;24.17;;;;;;;11.06;56.31;101184.94;4146318;28;20487;-67
2022/03/17 02:17:33;;;;;;;28.55;24.33;;;;;;;11.02;56.48;101191.78;4140378;28;20041;-66
2022/03/17 02:19:35;;;;;;;29.13;25.35;;;;;;;11.03;56.26;101184.88;4143899;28;20040;-66
2022/03/17 02:21:39;;;;;;;28.05;23.55;;;;;;;11.03;57.02;101187.47;4147375;28;20562;-67
2022/03/17 02:26:05;;;;;;;26.13;21.95;;;;;;;11.09;57.04;101195.44;4139493;28;20493;-67
2022/03/17 02:28:09;;;;;;;29.88;26.30;;;;;;;11.10;56.83;101186.78;4140785;28;20046;-66
2022/03/17 02:30:13;;;;;;;30.10;25.55;;;;;;;11.09;56.79;101190.22;4146274;28;20414;-66
2022/03/17 02:32:16;;;;;;;26.73;23.58;;;;;;;11.07;56.90;101195.38;4144556;28;20157;-66
2022/03/17 02:34:20;;;;;;;27.38;23.75;;;;;;;11.10;56.63;101198.06;4145345;28;20121;-67
2022/03/17 02:36:24;;;;;;;28.65;24.50;;;;;;;11.10;56.49;101195.47;4131898;28;20058;-67
2022/03/17 02:38:26;;;;;;;29.55;26.02;;;;;;;11.13;56.29;101200.72;4132644;28;20455;-67
2022/03/17 02:40:31;;;;;;;28.70;24.92;;;;;;;11.14;56.42;101194.69;4140954;28;20551;-67
2022/03/17 02:42:34;;;;;;;25.75;22.42;;;;;;;11.05;55.85;101197.06;4132587;28;20042;-67
2022/03/17 02:44:36;;;;;;;27.65;24.35;;;;;;;10.99;56.59;101194.31;4136672;28;20500;-67
2022/03/17 02:46:40;;;;;;;26.48;23.42;;;;;;;10.99;55.68;101199.53;4138186;28;20522;-67
2022/03/17 02:48:43;;;;;;;27.70;23.42;;;;;;;11.01;55.97;101208.25;4143876;28;20041;-67
2022/03/17 02:50:46;;;;;;;32.03;26.42;;;;;;;11.03;55.64;101203.97;4137585;28;20096;-67
2022/03/17 02:52:49;;;;;;;30.13;27.02;;;;;;;11.13;56.03;101203.34;4138552;28;20042;-67
2022/03/17 02:54:53;;;;;;;29.83;26.30;;;;;;;11.15;56.06;101203.38;4145560;28;20181;-67
2022/03/17 02:56:57;;;;;;;24.92;21.77;;;;;;;11.14;56.18;101205.09;4139697;28;20113;-67
2022/03/17 02:58:59;;;;;;;27.77;24.77;;;;;;;11.09;56.01;101211.91;4144497;28;20042;-67
2022/03/17 03:01:03;;;;;;;30.42;24.52;;;;;;;11.10;55.83;101211.06;4144321;28;20046;-67
2022/03/17 03:03:06;;;;;;;26.73;23.30;;;;;;;11.10;55.89;101208.47;4136253;28;20045;-67
2022/03/17 03:05:10;;;;;;;28.35;24.70;;;;;;;11.08;55.59;101215.38;4140343;28;20408;-67
2022/03/17 03:07:13;;;;;;;26.60;23.63;;;;;;;11.08;55.53;101217.06;4143724;28;20093;-67
2022/03/17 03:09:15;;;;;;;27.23;24.20;;;;;;;11.07;55.93;101217.91;4145176;28;20049;-66
2022/03/17 03:11:18;;;;;;;26.67;23.80;;;;;;;11.09;55.95;101221.44;4146217;28;20037;-67
2022/03/17 03:13:22;;;;;;;28.88;25.67;;;;;;;11.10;55.32;101212.81;4133963;28;20042;-67
2022/03/17 03:15:25;;;;;;;28.25;25.17;;;;;;;11.08;55.49;101215.38;4142895;28;20045;-67
2022/03/17 03:17:28;;;;;;;28.73;23.70;;;;;;;11.10;55.77;101215.41;4146294;28;20088;-67
2022/03/17 03:19:31;;;;;;;28.20;25.15;;;;;;;11.07;55.58;101210.09;4140033;28;20100;-67
2022/03/17 03:21:33;;;;;;;28.65;25.58;;;;;;;11.05;56.11;101223.06;4147064;28;20111;-67
2022/03/17 03:23:37;;;;;;;28.45;24.90;;;;;;;11.04;56.27;101213.53;4136070;28;20044;-67
2022/03/17 03:25:40;;;;;;;30.08;26.85;;;;;;;11.01;55.71;101213.47;4132221;28;20120;-67
2022/03/17 03:27:44;;;;;;;30.58;26.52;;;;;;;11.03;56.11;101216.97;4146207;28;20045;-66
2022/03/17 03:29:48;;;;;;;26.30;22.85;;;;;;;11.00;55.31;101222.97;4146790;28;20050;-66
2022/03/17 03:31:51;;;;;;;28.65;25.65;;;;;;;10.97;55.98;101222.91;4141951;28;20046;-66
2022/03/17 03:33:54;;;;;;;29.48;24.85;;;;;;;10.97;56.46;101228.09;4136717;28;20046;-66
2022/03/17 03:38:17;;;;;;;29.17;24.52;;;;;;;10.99;55.83;101236.84;4141603;28;20046;-67
2022/03/17 03:40:20;;;;;;;31.30;27.92;;;;;;;10.96;56.00;101231.53;4142474;28;20054;-66
2022/03/17 03:42:24;;;;;;;26.63;22.50;;;;;;;10.90;56.68;101238.31;4140898;28;20108;-66
2022/03/17 03:44:27;;;;;;;29.08;25.30;;;;;;;10.92;57.63;101249.63;4141212;28;20052;-67
2022/03/17 03:46:31;;;;;;;26.60;23.70;;;;;;;10.91;57.44;101251.38;4146391;28;20042;-67
2022/03/17 03:48:34;;;;;;;29.48;24.60;;;;;;;10.88;57.49;101233.09;4140304;28;20054;-67
2022/03/17 03:50:38;;;;;;;25.75;22.95;;;;;;;10.84;57.97;101241.66;4143919;28;20096;-67
2022/03/17 03:52:40;;;;;;;29.83;26.50;;;;;;;10.81;58.09;101237.25;4137785;28;20054;-67
2022/03/17 03:54:43;;;;;;;30.17;26.98;;;;;;;10.90;58.48;101234.00;4137777;28;20084;-66
2022/03/17 03:56:47;;;;;;;29.50;25.85;;;;;;;10.80;58.02;101247.59;4138275;28;20050;-66
2022/03/17 03:58:50;;;;;;;28.85;25.75;;;;;;;10.73;58.51;101254.38;4140534;28;20081;-66
2022/03/17 04:00:53;;;;;;;29.52;25.95;;;;;;;10.71;59.46;101243.03;4158603;28;20072;-66
2022/03/17 04:02:58;;;;;;;29.42;26.17;;;;;;;10.71;59.13;101240.44;4143240;28;20041;-66
2022/03/17 04:05:01;;;;;;;28.85;25.58;;;;;;;10.72;58.75;101237.00;4139477;28;20061;-66
2022/03/17 04:07:05;;;;;;;30.63;26.92;;;;;;;10.70;58.76;101246.47;4140433;28;20062;-66
2022/03/17 04:09:08;;;;;;;27.30;23.98;;;;;;;10.69;58.67;101252.53;4143565;28;20046;-66
2022/03/17 04:11:11;;;;;;;28.25;25.20;;;;;;;10.74;58.23;101250.06;4142202;28;20076;-66
2022/03/17 04:13:13;;;;;;;28.40;23.83;;;;;;;10.74;58.58;101245.72;4135718;28;20042;-66
2022/03/17 04:15:16;;;;;;;25.55;22.85;;;;;;;10.75;59.45;101247.50;4140192;28;20046;-66
2022/03/17 04:17:19;;;;;;;27.17;24.23;;;;;;;10.73;59.08;101251.78;4146047;28;20050;-66
2022/03/17 04:19:23;;;;;;;29.98;25.27;;;;;;;10.67;58.58;101258.53;4141607;28;20560;-66
2022/03/17 04:21:26;;;;;;;27.83;23.50;;;;;;;10.60;58.90;101262.66;4144578;28;20116;-66
2022/03/17 04:23:29;;;;;;;27.33;23.77;;;;;;;10.53;58.99;101266.84;4135243;28;20065;-66
2022/03/17 04:25:31;;;;;;;30.85;26.10;;;;;;;10.59;58.27;101260.94;4136777;28;20088;-66
2022/03/17 04:27:34;;;;;;;29.00;23.90;;;;;;;10.63;58.73;101268.84;4138704;28;20045;-66
2022/03/17 04:29:37;;;;;;;28.35;24.52;;;;;;;10.61;58.48;101274.84;4134452;28;20045;-66
2022/03/17 04:31:41;;;;;;;29.63;26.35;;;;;;;10.71;58.83;101271.66;4137448;28;20404;-66
2022/03/17 04:33:44;;;;;;;32.38;27.90;;;;;;;10.68;58.28;101270.69;4141737;28;20060;-66
2022/03/17 04:35:48;;;;;;;32.55;26.85;;;;;;;10.66;58.16;101262.84;4149092;28;20038;-66
2022/03/17 04:37:50;;;;;;;31.63;27.00;;;;;;;10.67;58.16;101259.41;4143884;28;20054;-65
2022/03/17 04:39:53;;;;;;;30.05;26.35;;;;;;;10.64;58.68;101255.03;4143531;28;20518;-66
2022/03/17 04:41:56;;;;;;;31.33;27.90;;;;;;;10.58;59.49;101256.56;4149445;28;20395;-66
2022/03/17 04:43:59;;;;;;;29.95;24.90;;;;;;;10.39;59.43;101273.38;4162796;28;20135;-67
2022/03/17 04:46:02;;;;;;;29.80;24.73;;;;;;;10.25;59.79;101285.94;4157022;28;20453;-66
2022/03/17 04:48:05;;;;;;;30.77;25.98;;;;;;;10.31;59.47;101281.81;4148780;28;20475;-66
2022/03/17 04:50:09;;;;;;;27.65;24.52;;;;;;;10.35;59.33;101290.59;4137393;28;20077;-66
2022/03/17 04:54:30;;;;;;;30.85;26.83;;;;;;;10.43;58.97;101289.09;4146502;28;20050;-67
2022/03/17 04:56:33;;;;;;;30.65;25.08;;;;;;;10.50;58.85;101289.25;4136376;28;20042;-67
2022/03/17 04:58:37;;;;;;;33.55;29.92;;;;;;;10.56;58.00;101299.84;4139975;28;20050;-67
2022/03/17 05:00:41;;;;;;;29.25;26.10;;;;;;;10.52;58.86;101318.78;4145216;28;20463;-67
2022/03/17 05:02:44;;;;;;;27.50;22.73;;;;;;;10.42;58.78;101320.25;4141442;28;20037;-66
2022/03/17 05:04:47;;;;;;;27.58;22.27;;;;;;;10.43;58.29;101322.88;4146183;28;20050;-67
2022/03/17 05:06:50;;;;;;;27.77;23.73;;;;;;;10.43;58.53;101315.09;4141363;28;20043;-67
2022/03/17 05:08:54;;;;;;;27.65;24.08;;;;;;;10.48;58.27;101315.22;4146379;28;20046;-67
2022/03/17 05:10:57;;;;;;;32.03;26.98;;;;;;;10.52;57.76;101321.41;4146123;28;20050;-67
2022/03/17 05:13:00;;;;;;;31.40;25.38;;;;;;;10.57;57.99;101323.28;4144861;28;20058;-67
2022/03/17 05:15:03;;;;;;;28.55;24.33;;;;;;;10.62;57.71;101331.22;4146242;28;20046;-67
2022/03/17 05:17:06;;;;;;;30.10;26.25;;;;;;;10.64;57.23;101333.03;4144243;28;20034;-67
2022/03/17 05:19:09;;;;;;;32.13;26.65;;;;;;;10.66;57.98;101325.28;4138201;28;20042;-67
2022/03/17 05:21:12;;;;;;;31.50;28.10;;;;;;;10.67;57.35;101324.41;4142492;28;20049;-68
2022/03/17 05:23:17;;;;;;;29.75;25.33;;;;;;;10.68;58.01;101330.50;4144736;28;20046;-67
2022/03/17 05:25:21;;;;;;;31.05;25.52;;;;;;;10.66;57.82;101338.28;4147549;28;20049;-68
2022/03/17 05:27:24;;;;;;;28.30;24.75;;;;;;;10.64;57.70;101342.53;4141634;28;20082;-67
2022/03/17 05:29:27;;;;;;;28.73;25.50;;;;;;;10.63;58.41;101339.06;4140495;28;20046;-67
2022/03/17 05:31:30;;;;;;;30.27;25.48;;;;;;;10.63;59.08;101341.66;4140140;28;20480;-67
2022/03/17 05:33:34;;;;;;;28.63;25.40;;;;;;;10.61;58.93;101339.84;4148104;28;20044;-67
2022/03/17 05:35:38;;;;;;;29.25;26.13;;;;;;;10.58;59.50;101342.38;4135192;28;20058;-67
2022/03/17 05:37:41;;;;;;;28.17;25.08;;;;;;;10.55;59.01;101337.94;4148188;28;20477;-67
2022/03/17 05:39:44;;;;;;;28.52;25.52;;;;;;;10.52;59.10;101337.00;4145463;28;20084;-67
2022/03/17 05:41:48;;;;;;;32.42;26.63;;;;;;;10.47;59.54;101340.34;4131596;28;20050;-67
2022/03/17 05:43:51;;;;;;;28.90;24.83;;;;;;;10.44;59.36;101339.34;4138015;28;20057;-67
2022/03/17 05:45:53;;;;;;;31.30;28.00;;;;;;;10.45;60.60;101338.53;4144759;28;20038;-67
2022/03/17 05:47:58;;;;;;;30.70;27.42;;;;;;;10.51;59.74;101345.63;4143701;28;20121;-67
2022/03/17 05:50:00;;;;;;;32.90;29.40;;;;;;;10.50;59.15;101352.56;4145443;28;20041;-67
2022/03/17 05:52:04;;;;;;;34.75;30.95;;;;;;;10.48;58.87;101357.72;4132825;28;20400;-67
2022/03/17 05:54:07;;;;;;;30.85;26.80;;;;;;;10.40;59.13;101368.72;4133279;28;20050;-67
2022/03/17 05:56:09;;;;;;;30.52;27.20;;;;;;;10.22;59.88;101375.09;4141711;28;20046;-67
2022/03/17 05:58:13;;;;;;;31.73;26.20;;;;;;;10.11;59.81;101376.47;4145873;28;20241;-67
2022/03/17 06:00:18;;;;;;;32.03;28.05;;;;;;;10.19;60.08;101379.31;4147522;28;20061;-67
2022/03/17 06:02:21;;;;;;;36.88;28.48;;;;;;;10.26;59.84;101376.06;4140843;28;20089;-67
2022/03/17 06:04:24;;;;;;;31.02;27.50;;;;;;;10.30;59.56;101383.13;4147360;28;20057;-67
2022/03/17 06:06:27;;;;;;;31.95;27.48;;;;;;;10.35;60.38;101380.69;4142105;28;20390;-67
2022/03/17 06:08:30;;;;;;;33.03;26.55;;;;;;;10.34;60.15;101382.41;4144212;28;20061;-67
2022/03/17 06:10:34;;;;;;;31.83;28.42;;;;;;;10.36;59.89;101383.31;4138155;28;20121;-67
2022/03/17 06:12:37;;;;;;;34.05;28.92;;;;;;;10.38;60.31;101385.97;4139993;28;20045;-66
2022/03/17 06:14:41;;;;;;;29.45;26.13;;;;;;;10.40;60.09;101394.72;4141976;28;20034;-67
2022/03/17 06:16:44;;;;;;;30.65;26.38;;;;;;;10.40;60.59;101398.19;4139721;28;20049;-67
2022/03/17 06:18:46;;;;;;;34.10;26.08;;;;;;;10.28;60.50;101406.47;4136253;28;20101;-67
2022/03/17 06:20:50;;;;;;;29.40;25.00;;;;;;;10.20;60.70;101410.53;4138545;28;20046;-67
2022/03/17 06:22:54;;;;;;;26.10;23.05;;;;;;;10.27;60.00;101411.63;4139237;28;20062;-67
2022/03/17 06:24:56;;;;;;;47.30;27.27;;;;;;;10.26;59.50;101412.44;4140403;28;20054;-66
2022/03/17 06:26:59;;;;;;;30.58;25.48;;;;;;;10.26;59.38;101407.25;4139012;28;20721;-67
2022/03/17 06:29:02;;;;;;;36.20;28.63;;;;;;;10.32;59.63;101410.03;4137572;28;20049;-67
2022/03/17 06:31:06;;;;;;;30.23;26.75;;;;;;;10.38;58.97;101411.97;4142996;28;20092;-67
2022/03/17 06:33:09;;;;;;;30.23;26.67;;;;;;;10.42;60.13;101413.81;4139241;28;20144;-67
2022/03/17 06:35:17;;;;;;;29.98;25.42;;;;;;;10.46;60.03;101416.56;4137237;28;20046;-67
2022/03/17 06:37:20;;;;;;;30.70;26.75;;;;;;;10.52;60.41;101425.41;4144338;28;20387;-67
2022/03/17 06:39:23;;;;;;;32.35;27.35;;;;;;;10.54;59.78;101426.31;4138200;28;20085;-67
2022/03/17 06:41:25;;;;;;;31.52;27.00;;;;;;;10.55;60.28;101433.28;4139576;28;20081;-67
2022/03/17 06:43:28;;;;;;;30.48;27.17;;;;;;;10.58;60.92;101430.78;4137547;28;20050;-67
2022/03/17 06:45:31;;;;;;;33.03;28.58;;;;;;;10.57;61.69;101432.50;4139536;28;20455;-67
2022/03/17 06:47:36;;;;;;;34.60;30.00;;;;;;;10.61;60.97;101436.06;4140445;28;20038;-67
2022/03/17 06:49:38;;;;;;;33.85;28.45;;;;;;;10.56;61.14;101438.53;4142124;28;20038;-67
2022/03/17 06:51:41;;;;;;;35.45;27.95;;;;;;;10.56;60.36;101446.31;4137904;28;20034;-67
2022/03/17 06:53:44;;;;;;;33.55;29.70;;;;;;;10.56;61.06;101448.06;4137299;28;20131;-67
2022/03/17 06:55:47;;;;;;;36.33;32.40;;;;;;;10.58;61.53;101454.16;4140411;28;20042;-67
2022/03/17 06:57:49;;;;;;;34.17;30.58;;;;;;;10.60;60.37;101450.78;4139037;28;20073;-67
2022/03/17 06:59:52;;;;;;;37.70;33.65;;;;;;;10.59;60.73;101451.63;4140910;28;20104;-67
2022/03/17 07:01:55;;;;;;;34.83;30.95;;;;;;;10.58;60.48;101454.16;4152924;28;20030;-66
2022/03/17 07:03:59;;;;;;;40.65;31.30;;;;;;;10.61;60.29;101454.25;4140193;28;20532;-67
2022/03/17 07:06:02;;;;;;;34.10;28.80;;;;;;;10.60;59.96;101456.00;4138338;28;20492;-66
2022/03/17 07:08:05;;;;;;;37.22;30.90;;;;;;;10.62;59.90;101463.84;4142252;28;20053;-66
2022/03/17 07:10:09;;;;;;;32.58;29.08;;;;;;;10.63;60.81;101466.47;4138902;28;20108;-67
2022/03/17 07:12:12;;;;;;;39.13;31.02;;;;;;;10.67;60.75;101472.63;4138170;28;20050;-67
2022/03/17 07:14:15;;;;;;;38.97;34.58;;;;;;;10.72;60.58;101467.56;4148208;28;20100;-67
2022/03/17 07:16:18;;;;;;;39.45;35.15;;;;;;;10.77;60.71;101473.81;4141613;28;20046;-67
2022/03/17 07:18:21;;;;;;;41.20;34.88;;;;;;;10.88;60.21;101479.31;4138046;28;20440;-67
2022/03/17 07:20:25;;;;;;;40.08;35.53;;;;;;;10.84;59.99;101478.34;4133898;28;20572;-67
2022/03/17 07:22:28;;;;;;;42.72;35.22;;;;;;;10.76;60.28;101479.84;4131365;28;20049;-67
2022/03/17 07:24:32;;;;;;;39.80;33.72;;;;;;;10.75;60.91;101481.56;4140289;28;20046;-67
2022/03/17 07:26:34;;;;;;;41.40;34.47;;;;;;;10.81;60.34;101484.34;4142600;28;20049;-67
2022/03/17 07:28:37;;;;;;;41.90;33.45;;;;;;;10.79;60.14;101488.63;4139621;28;20050;-67
2022/03/17 07:30:40;;;;;;;38.65;31.63;;;;;;;10.79;60.37;101491.22;4142901;28;20045;-67
2022/03/17 07:32:42;;;;;;;45.03;32.85;;;;;;;10.81;61.57;101493.88;4139127;28;20038;-67
2022/03/17 07:34:46;;;;;;;41.60;34.05;;;;;;;10.81;62.82;101493.88;4138265;28;20050;-67
2022/03/17 07:36:51;;;;;;;33.13;27.25;;;;;;;10.81;63.11;101502.56;4140067;28;20041;-67
2022/03/17 07:38:55;;;;;;;35.50;30.67;;;;;;;10.85;62.87;101497.44;4140761;28;20713;-67
2022/03/17 07:40:57;;;;;;;45.83;34.85;;;;;;;10.85;62.06;101502.63;4137500;28;20394;-67
2022/03/17 07:43:00;;;;;;;45.35;35.17;;;;;;;10.88;62.21;101513.13;4140710;28;20040;-67
2022/03/17 07:45:09;;;;;;;33.78;29.25;;;;;;;10.88;62.27;101513.13;4137397;28;20129;-67
2022/03/17 07:47:32;;;;;;;35.77;30.10;;;;;;;10.73;61.85;101511.88;4141977;28;20126;-67
2022/03/17 07:49:35;;;;;;;38.00;32.93;;;;;;;10.73;61.50;101509.25;4139380;28;20702;-67
2022/03/17 07:51:39;;;;;;;41.33;36.83;;;;;;;10.82;61.62;101514.72;4145961;28;22821;-67
2022/03/17 07:53:44;;;;;;;46.43;34.30;;;;;;;10.88;61.20;101516.63;4138211;28;20042;-67
2022/03/17 07:55:47;;;;;;;43.08;35.00;;;;;;;10.95;61.22;101515.97;4142408;28;20108;-67
2022/03/17 07:57:50;;;;;;;53.85;35.50;;;;;;;11.01;61.54;101507.47;4142806;28;20088;-67
2022/03/17 07:59:52;;;;;;;42.47;33.22;;;;;;;11.07;61.85;101517.16;4139246;28;20042;-67
2022/03/17 08:01:57;;;;;;;41.10;34.30;;;;;;;11.10;60.67;101515.53;4135119;28;20105;-68
2022/03/17 08:04:00;;;;;;;48.80;36.92;;;;;;;11.20;59.90;101521.00;4136125;28;20067;-68
2022/03/17 08:06:03;;;;;;;45.80;36.30;;;;;;;11.30;59.41;101528.22;4136435;28;20049;-68
2022/03/17 08:08:05;;;;;;;44.42;38.33;;;;;;;11.37;59.64;101524.97;4139986;28;20041;-68
2022/03/17 08:10:11;;;;;;;42.65;34.63;;;;;;;11.41;59.28;101523.34;4139225;28;20393;-68
2022/03/17 08:12:19;;;;;;;46.58;36.33;;;;;;;11.40;58.78;101521.56;4136303;28;20140;-68
2022/03/17 08:14:22;;;;;;;49.85;35.17;;;;;;;11.32;59.20;101530.06;4140881;28;20042;-67
2022/03/17 08:16:24;;;;;;;43.60;34.85;;;;;;;11.33;59.79;101529.22;4142755;28;20068;-68
2022/03/17 08:18:29;;;;;;;46.80;37.25;;;;;;;11.38;59.41;101534.56;4142890;28;20044;-67
2022/03/17 08:20:32;;;;;;;38.00;31.25;;;;;;;11.38;59.61;101542.38;4136354;28;20038;-67
2022/03/17 08:22:35;;;;;;;41.70;31.63;;;;;;;11.42;59.55;101533.81;4141245;28;20381;-67
2022/03/17 08:24:40;;;;;;;43.75;37.88;;;;;;;11.39;58.63;101536.34;4138622;28;20553;-67
2022/03/17 08:26:44;;;;;;;48.15;38.45;;;;;;;11.52;58.54;101540.13;4140211;28;20046;-67
2022/03/17 08:28:47;;;;;;;52.40;39.88;;;;;;;11.58;58.20;101544.63;4135240;28;20388;-67
2022/03/17 08:30:51;;;;;;;52.97;37.65;;;;;;;11.51;58.15;101536.66;4131554;28;20091;-67
2022/03/17 08:32:54;;;;;;;43.75;36.95;;;;;;;11.54;58.37;101551.50;4134145;28;20046;-67
2022/03/17 08:34:57;;;;;;;43.30;37.53;;;;;;;11.59;57.72;101554.22;4138968;28;20050;-67
2022/03/17 08:36:59;;;;;;;45.10;34.50;;;;;;;11.50;57.79;101560.06;4138175;28;20492;-67
2022/03/17 08:39:02;;;;;;;45.75;37.22;;;;;;;11.51;57.76;101554.88;4140572;28;20054;-67
2022/03/17 08:41:05;;;;;;;49.55;38.90;;;;;;;11.73;56.57;101558.09;4144094;28;20046;-67
2022/03/17 08:43:09;;;;;;;56.67;37.83;;;;;;;11.70;56.54;101558.88;4137594;28;20407;-67
2022/03/17 08:49:52;;;;;;;46.33;39.28;;;;;;;11.62;56.80;101568.22;4141565;28;20058;-67
2022/03/17 08:51:59;;;;;;;45.72;36.40;;;;;;;11.63;56.58;101563.88;4146613;28;20054;-68
2022/03/17 08:54:02;;;;;;;50.78;37.88;;;;;;;11.64;57.25;101571.75;4140769;28;20073;-67
2022/03/17 08:56:06;;;;;;;47.85;36.55;;;;;;;11.65;56.38;101573.50;4144440;28;20050;-67
2022/03/17 08:58:10;;;;;;;45.85;37.25;;;;;;;11.65;57.16;101572.63;4140183;28;20053;-67
2022/03/17 09:00:14;;;;;;;49.88;36.50;;;;;;;11.66;56.81;101572.66;4146784;28;20061;-67
2022/03/17 09:02:18;;;;;;;48.10;38.67;;;;;;;11.65;56.85;101573.50;4146514;28;20046;-67
2022/03/17 09:04:21;;;;;;;48.28;37.85;;;;;;;11.59;56.70;101573.31;4141347;28;20050;-67
2022/03/17 09:06:24;;;;;;;48.88;36.90;;;;;;;11.65;56.61;101583.03;4142138;28;20440;-67
2022/03/17 09:08:27;;;;;;;48.53;36.28;;;;;;;11.65;56.34;101583.03;4142252;28;20084;-67
2022/03/17 09:10:30;;;;;;;47.60;38.80;;;;;;;11.78;55.85;101594.69;4131017;28;20049;-68
2022/03/17 09:12:35;;;;;;;46.95;37.03;;;;;;;11.67;56.17;101595.25;4135465;28;20451;-67
2022/03/17 09:14:41;;;;;;;44.83;36.05;;;;;;;11.72;56.30;101592.78;4137790;28;20038;-67
2022/03/17 09:16:44;;;;;;;47.28;37.22;;;;;;;11.64;56.60;101596.91;4136919;28;20060;-67
2022/03/17 09:18:47;;;;;;;50.05;37.20;;;;;;;11.70;56.12;101600.56;4130028;28;20038;-67
2022/03/17 09:20:51;;;;;;;46.63;39.15;;;;;;;11.90;55.76;101599.34;4139362;28;20588;-68
2022/03/17 09:22:56;;;;;;;50.25;37.67;;;;;;;11.72;56.22;101600.59;4140194;28;20106;-67
2022/03/17 09:24:59;;;;;;;41.28;33.67;;;;;;;11.64;55.85;101603.00;4135733;28;20129;-67
2022/03/17 09:27:02;;;;;;;42.53;36.25;;;;;;;11.69;56.14;101606.59;4145556;28;20038;-67
2022/03/17 09:29:05;;;;;;;46.63;36.53;;;;;;;11.61;56.38;101608.13;4136054;28;20052;-67
2022/03/17 09:31:09;;;;;;;41.28;36.83;;;;;;;11.66;57.04;101613.47;4132322;28;20054;-67
2022/03/17 09:33:12;;;;;;;44.88;37.00;;;;;;;11.82;55.55;101618.25;4133431;28;20050;-67
2022/03/17 09:35:16;;;;;;;44.72;36.92;;;;;;;11.76;56.03;101617.22;4140577;28;20777;-67